createdAt,value
2019-02-09T00:01:45.527Z,3.10
2019-02-09T00:04:14.835Z,3.03
2019-02-09T00:06:44.167Z,2.93
2019-02-09T00:09:13.491Z,3.06
2019-02-09T00:11:42.746Z,3.03
2019-02-09T00:14:12.001Z,2.98
2019-02-09T00:16:41.289Z,2.94
2019-02-09T00:19:10.540Z,2.87
2019-02-09T00:21:39.866Z,2.88
2019-02-09T00:24:09.119Z,2.98
2019-02-09T00:26:38.406Z,2.86
2019-02-09T00:29:07.676Z,2.90
2019-02-09T00:31:36.935Z,2.86
2019-02-09T00:34:07.446Z,2.95
2019-02-09T00:36:36.725Z,2.85
2019-02-09T00:39:07.937Z,3.01
2019-02-09T00:41:37.242Z,2.97
2019-02-09T00:44:06.514Z,2.93
2019-02-09T00:46:35.825Z,2.90
2019-02-09T00:49:05.122Z,2.96
2019-02-09T00:51:34.398Z,2.98
2019-02-09T00:54:03.673Z,3.02
2019-02-09T00:56:32.953Z,3.00
2019-02-09T00:59:02.228Z,3.02
2019-02-09T01:01:31.471Z,2.92
2019-02-09T01:04:00.743Z,2.89
2019-02-09T01:06:30.032Z,2.86
2019-02-09T01:08:59.519Z,2.97
2019-02-09T01:11:28.729Z,2.95
2019-02-09T01:13:58.036Z,2.99
2019-02-09T01:16:27.313Z,2.82
2019-02-09T01:18:56.647Z,3.05
2019-02-09T01:21:25.967Z,2.87
2019-02-09T01:23:55.251Z,2.99
2019-02-09T01:26:24.519Z,3.03
2019-02-09T01:28:53.786Z,2.98
2019-02-09T01:31:23.099Z,2.95
2019-02-09T01:33:52.348Z,2.97
2019-02-09T01:36:21.613Z,2.95
2019-02-09T01:38:50.940Z,2.97
2019-02-09T01:41:20.194Z,2.91
2019-02-09T01:43:49.467Z,2.96
2019-02-09T01:46:18.714Z,2.96
2019-02-09T01:48:47.994Z,3.01
2019-02-09T01:51:17.284Z,2.98
2019-02-09T01:53:46.554Z,2.94
2019-02-09T01:56:15.839Z,2.96
2019-02-09T01:58:45.095Z,2.92
2019-02-09T02:01:14.559Z,2.85
2019-02-09T02:03:43.831Z,2.96
2019-02-09T02:06:13.199Z,2.85
2019-02-09T02:08:42.445Z,2.82
2019-02-09T02:11:11.718Z,2.91
2019-02-09T02:13:40.991Z,2.97
2019-02-09T02:16:10.236Z,2.91
2019-02-09T02:18:39.506Z,2.88
2019-02-09T02:21:08.758Z,2.96
2019-02-09T02:23:38.059Z,2.88
2019-02-09T02:26:07.337Z,2.92
2019-02-09T02:28:36.578Z,2.92
2019-02-09T02:31:05.871Z,2.95
2019-02-09T02:33:35.125Z,2.94
2019-02-09T02:36:04.500Z,2.89
2019-02-09T02:38:33.750Z,2.90
2019-02-09T02:41:04.224Z,3.01
2019-02-09T02:43:33.498Z,3.02
2019-02-09T02:46:02.762Z,3.08
2019-02-09T02:48:32.983Z,2.96
2019-02-09T02:51:02.251Z,2.98
2019-02-09T02:53:31.524Z,3.03
2019-02-09T02:56:00.781Z,3.08
2019-02-09T02:58:30.075Z,3.12
2019-02-09T03:00:59.323Z,3.06
2019-02-09T03:03:28.608Z,3.15
2019-02-09T03:05:57.903Z,3.05
2019-02-09T03:08:27.145Z,2.98
2019-02-09T03:10:56.427Z,2.99
2019-02-09T03:13:25.696Z,2.95
2019-02-09T03:15:54.982Z,3.01
2019-02-09T03:18:24.243Z,2.91
2019-02-09T03:20:53.500Z,2.98
2019-02-09T03:23:22.773Z,3.03
2019-02-09T03:25:52.024Z,3.06
2019-02-09T03:28:21.344Z,3.00
2019-02-09T03:30:50.641Z,2.95
2019-02-09T03:33:19.879Z,3.04
2019-02-09T03:35:49.128Z,2.94
2019-02-09T03:38:18.392Z,3.04
2019-02-09T03:40:47.933Z,3.24
2019-02-09T03:43:18.298Z,3.09
2019-02-09T03:45:47.646Z,3.08
2019-02-09T03:48:16.895Z,3.17
2019-02-09T03:50:46.278Z,3.05
2019-02-09T03:53:15.527Z,3.11
2019-02-09T03:55:44.768Z,3.12
2019-02-09T03:58:14.036Z,3.24
2019-02-09T04:00:43.480Z,3.26
2019-02-09T04:03:12.828Z,3.25
2019-02-09T04:05:42.082Z,3.24
2019-02-09T04:08:11.652Z,3.35
2019-02-09T04:10:40.926Z,3.32
2019-02-09T04:13:10.170Z,3.28
2019-02-09T04:15:39.438Z,3.42
2019-02-09T04:18:08.683Z,3.40
2019-02-09T04:20:37.927Z,3.50
2019-02-09T04:23:07.194Z,3.42
2019-02-09T04:25:36.440Z,3.39
2019-02-09T04:28:05.802Z,3.48
2019-02-09T04:30:35.063Z,3.42
2019-02-09T04:33:04.345Z,3.50
2019-02-09T04:35:33.662Z,3.46
2019-02-09T04:38:02.937Z,3.39
2019-02-09T04:40:33.040Z,3.39
2019-02-09T04:43:02.282Z,3.52
2019-02-09T04:45:34.294Z,3.55
2019-02-09T04:48:03.550Z,3.55
2019-02-09T04:50:32.818Z,3.61
2019-02-09T04:53:02.084Z,3.63
2019-02-09T04:55:31.356Z,3.76
2019-02-09T04:58:00.602Z,3.72
2019-02-09T05:00:31.124Z,3.93
2019-02-09T05:03:00.368Z,3.87
2019-02-09T05:05:30.318Z,3.84
2019-02-09T05:07:59.568Z,4.03
2019-02-09T05:10:28.805Z,3.99
2019-02-09T05:12:58.083Z,3.90
2019-02-09T05:15:27.338Z,4.07
2019-02-09T05:17:56.611Z,4.06
2019-02-09T05:20:26.173Z,3.86
2019-02-09T05:22:55.586Z,3.82
2019-02-09T05:25:24.977Z,3.82
2019-02-09T05:27:54.223Z,4.05
2019-02-09T05:30:28.025Z,4.01
2019-02-09T05:33:00.361Z,3.97
2019-02-09T05:35:29.171Z,3.88
2019-02-09T05:37:58.416Z,3.82
2019-02-09T05:40:27.984Z,3.91
2019-02-09T05:42:57.255Z,3.81
2019-02-09T05:45:27.821Z,3.96
2019-02-09T05:47:57.116Z,3.94
2019-02-09T05:50:26.335Z,3.90
2019-02-09T05:52:55.800Z,3.87
2019-02-09T05:55:25.077Z,3.86
2019-02-09T05:57:54.331Z,3.72
2019-02-09T06:00:31.949Z,3.72
2019-02-09T06:03:01.185Z,3.70
2019-02-09T06:05:30.470Z,3.81
2019-02-09T06:07:59.758Z,3.87
2019-02-09T06:10:29.012Z,3.88
2019-02-09T06:12:58.278Z,3.94
2019-02-09T06:15:28.247Z,3.81
2019-02-09T06:17:57.524Z,3.83
2019-02-09T06:20:27.296Z,3.98
2019-02-09T06:22:56.949Z,3.92
2019-02-09T06:25:26.211Z,4.18
2019-02-09T06:27:55.864Z,4.50
2019-02-09T06:30:27.118Z,4.52
2019-02-09T06:32:56.658Z,4.60
2019-02-09T06:35:26.371Z,4.74
2019-02-09T06:37:55.816Z,4.80
2019-02-09T06:40:25.655Z,4.84
2019-02-09T06:42:54.931Z,4.82
2019-02-09T06:45:24.733Z,4.75
2019-02-09T06:47:54.011Z,4.85
2019-02-09T06:50:26.116Z,4.80
2019-02-09T06:52:55.360Z,4.93
2019-02-09T06:55:24.640Z,5.00
2019-02-09T06:57:53.890Z,4.91
2019-02-09T07:00:23.407Z,4.95
2019-02-09T07:02:54.459Z,4.92
2019-02-09T07:05:23.720Z,4.93
2019-02-09T07:07:52.982Z,4.98
2019-02-09T07:10:23.513Z,5.10
2019-02-09T07:12:52.957Z,4.99
2019-02-09T07:15:24.906Z,5.10
2019-02-09T07:17:54.201Z,5.11
2019-02-09T07:20:23.950Z,5.21
2019-02-09T07:22:53.227Z,5.22
2019-02-09T07:25:22.970Z,5.39
2019-02-09T07:27:52.328Z,5.31
2019-02-09T07:30:28.753Z,5.30
2019-02-09T07:32:58.826Z,5.39
2019-02-09T07:35:28.150Z,5.54
2019-02-09T07:37:57.714Z,5.66
2019-02-09T07:40:27.696Z,5.63
2019-02-09T07:42:56.993Z,5.55
2019-02-09T07:45:27.298Z,5.60
2019-02-09T07:47:56.678Z,5.51
2019-02-09T07:50:26.480Z,5.63
2019-02-09T07:52:55.764Z,5.79
2019-02-09T07:55:25.638Z,5.64
2019-02-09T07:57:54.914Z,5.71
2019-02-09T08:00:28.898Z,5.90
2019-02-09T08:03:03.755Z,5.84
2019-02-09T08:05:33.403Z,5.99
2019-02-09T08:08:02.690Z,5.96
2019-02-09T08:10:33.101Z,6.01
2019-02-09T08:13:02.750Z,6.10
2019-02-09T08:15:32.724Z,6.09
2019-02-09T08:18:02.333Z,6.11
2019-02-09T08:20:31.812Z,6.12
2019-02-09T08:23:02.226Z,6.22
2019-02-09T08:25:33.312Z,6.27
2019-02-09T08:28:04.653Z,6.50
2019-02-09T08:30:40.316Z,6.72
2019-02-09T08:33:09.964Z,7.03
2019-02-09T08:35:40.439Z,6.69
2019-02-09T08:38:11.391Z,7.01
2019-02-09T08:40:40.907Z,6.75
2019-02-09T08:43:10.161Z,6.72
2019-02-09T08:45:39.436Z,6.69
2019-02-09T08:48:08.946Z,6.91
2019-02-09T08:50:53.823Z,6.78
2019-02-09T08:53:23.067Z,6.74
2019-02-09T08:55:52.358Z,6.65
2019-02-09T08:58:21.609Z,6.45
2019-02-09T09:00:50.914Z,6.43
2019-02-09T09:03:20.217Z,6.33
2019-02-09T09:05:53.336Z,6.54
2019-02-09T09:08:24.394Z,6.50
2019-02-09T09:10:53.690Z,6.42
2019-02-09T09:13:22.985Z,6.58
2019-02-09T09:15:54.425Z,6.38
2019-02-09T09:18:23.670Z,6.54
2019-02-09T09:20:55.469Z,6.48
2019-02-09T09:23:24.774Z,6.74
2019-02-09T09:25:54.050Z,6.53
2019-02-09T09:28:23.333Z,6.70
2019-02-09T09:30:52.587Z,6.55
2019-02-09T09:33:21.875Z,6.72
2019-02-09T09:35:51.275Z,6.64
2019-02-09T09:38:20.868Z,6.67
2019-02-09T09:40:50.145Z,6.82
2019-02-09T09:43:20.521Z,6.76
2019-02-09T09:45:50.203Z,6.85
2019-02-09T09:48:20.329Z,7.02
2019-02-09T09:50:49.589Z,7.55
2019-02-09T09:53:18.886Z,8.48
2019-02-09T09:55:48.174Z,8.87
2019-02-09T09:58:17.964Z,9.48
2019-02-09T10:00:47.350Z,9.98
2019-02-09T10:03:16.678Z,10.51
2019-02-09T10:05:45.944Z,10.67
2019-02-09T10:08:15.256Z,10.88
2019-02-09T10:10:44.616Z,11.52
2019-02-09T10:13:13.939Z,12.04
2019-02-09T10:15:43.204Z,12.89
2019-02-09T10:18:12.560Z,13.66
2019-02-09T10:20:41.868Z,13.86
2019-02-09T10:23:11.164Z,11.65
2019-02-09T10:25:40.407Z,10.71
2019-02-09T10:28:09.802Z,11.28
2019-02-09T10:30:39.271Z,11.38
2019-02-09T10:33:08.549Z,10.63
2019-02-09T10:35:37.821Z,10.22
2019-02-09T10:38:07.121Z,10.08
2019-02-09T10:40:36.385Z,10.04
2019-02-09T10:43:07.711Z,10.30
2019-02-09T10:45:37.111Z,9.98
2019-02-09T10:48:08.833Z,10.28
2019-02-09T10:50:44.019Z,10.36
2019-02-09T10:53:13.378Z,10.18
2019-02-09T10:55:42.638Z,10.45
2019-02-09T10:58:11.963Z,10.30
2019-02-09T11:00:47.517Z,10.62
2019-02-09T11:03:17.982Z,10.89
2019-02-09T11:05:47.207Z,10.89
2019-02-09T11:08:16.851Z,11.55
2019-02-09T11:10:46.481Z,12.31
2019-02-09T11:13:15.742Z,11.49
2019-02-09T11:15:45.199Z,11.64
2019-02-09T11:18:14.475Z,10.89
2019-02-09T11:20:43.734Z,10.40
2019-02-09T11:23:13.087Z,10.41
2019-02-09T11:26:03.002Z,10.70
2019-02-09T11:28:32.903Z,10.70
2019-02-09T11:31:03.821Z,10.45
2019-02-09T11:33:33.539Z,10.24
2019-02-09T11:36:03.166Z,10.19
2019-02-09T11:38:32.578Z,10.63
2019-02-09T11:41:18.248Z,10.65
2019-02-09T11:43:57.913Z,10.61
2019-02-09T11:46:27.338Z,10.50
2019-02-09T11:48:56.595Z,10.29
2019-02-09T11:51:25.868Z,10.07
2019-02-09T11:53:55.273Z,9.71
2019-02-09T11:56:27.224Z,9.69
2019-02-09T11:58:57.707Z,9.88
2019-02-09T12:01:28.077Z,10.07
2019-02-09T12:03:58.654Z,9.99
2019-02-09T12:06:28.045Z,10.08
2019-02-09T12:08:57.450Z,10.02
2019-02-09T12:11:26.802Z,9.90
2019-02-09T12:13:56.276Z,10.13
2019-02-09T12:16:25.690Z,10.36
2019-02-09T12:18:55.191Z,10.40
2019-02-09T12:21:26.370Z,10.65
2019-02-09T12:23:57.168Z,11.07
2019-02-09T12:26:27.628Z,11.72
2019-02-09T12:28:57.100Z,11.58
2019-02-09T12:31:26.486Z,11.67
2019-02-09T12:33:57.159Z,11.33
2019-02-09T12:36:26.569Z,11.43
2019-02-09T12:38:55.971Z,11.93
2019-02-09T12:41:26.378Z,11.91
2019-02-09T12:43:56.132Z,11.65
2019-02-09T12:46:28.421Z,11.83
2019-02-09T12:48:58.268Z,11.47
2019-02-09T12:51:27.762Z,11.79
2019-02-09T12:54:00.730Z,12.29
2019-02-09T12:56:30.233Z,11.62
2019-02-09T12:59:00.077Z,11.19
2019-02-09T13:01:33.143Z,10.65
2019-02-09T13:04:02.583Z,10.87
2019-02-09T13:06:32.074Z,11.38
2019-02-09T13:09:03.750Z,11.47
2019-02-09T13:11:33.178Z,11.33
2019-02-09T13:14:03.858Z,11.03
2019-02-09T13:16:36.302Z,11.21
2019-02-09T13:19:06.742Z,11.56
2019-02-09T13:21:36.388Z,11.85
2019-02-09T13:24:08.150Z,11.76
2019-02-09T13:26:39.255Z,11.46
2019-02-09T13:29:10.441Z,11.18
2019-02-09T13:31:42.968Z,10.72
2019-02-09T13:34:13.412Z,10.63
2019-02-09T13:36:44.814Z,10.61
2019-02-09T13:39:17.222Z,10.45
2019-02-09T13:41:46.618Z,10.37
2019-02-09T13:44:17.163Z,10.21
2019-02-09T13:46:46.727Z,10.40
2019-02-09T13:49:17.169Z,10.53
2019-02-09T13:51:48.415Z,10.48
2019-02-09T13:54:18.896Z,10.59
2019-02-09T13:56:50.068Z,10.65
2019-02-09T13:59:20.961Z,10.45
2019-02-09T14:01:51.548Z,10.43
2019-02-09T14:04:22.897Z,10.38
2019-02-09T14:06:52.403Z,10.31
2019-02-09T14:09:21.747Z,10.18
2019-02-09T14:11:53.294Z,10.22
2019-02-09T14:14:22.701Z,10.23
2019-02-09T14:16:55.182Z,10.15
2019-02-09T14:19:27.027Z,10.13
2019-02-09T14:21:57.875Z,10.13
2019-02-09T14:24:29.178Z,10.15
2019-02-09T14:26:58.426Z,10.30
2019-02-09T14:29:27.741Z,10.28
2019-02-09T14:31:57.347Z,10.32
2019-02-09T14:34:26.762Z,10.30
2019-02-09T14:36:56.111Z,10.29
2019-02-09T14:39:25.406Z,10.34
2019-02-09T14:41:54.631Z,10.18
2019-02-09T14:44:23.900Z,10.02
2019-02-09T14:46:53.143Z,9.96
2019-02-09T14:49:22.417Z,9.97
2019-02-09T14:51:51.668Z,9.97
2019-02-09T14:54:20.921Z,10.04
2019-02-09T14:56:50.216Z,10.00
2019-02-09T14:59:19.484Z,9.84
2019-02-09T15:01:52.065Z,9.82
2019-02-09T15:04:21.660Z,9.74
2019-02-09T15:06:50.917Z,9.75
2019-02-09T15:09:22.007Z,9.69
2019-02-09T15:11:51.255Z,9.65
2019-02-09T15:14:20.547Z,9.72
2019-02-09T15:16:52.699Z,9.70
2019-02-09T15:19:25.471Z,9.63
2019-02-09T15:21:54.739Z,9.50
2019-02-09T15:24:23.982Z,9.48
2019-02-09T15:26:53.249Z,9.56
2019-02-09T15:29:22.543Z,9.46
2019-02-09T15:31:51.968Z,9.54
2019-02-09T15:34:21.222Z,9.51
2019-02-09T15:36:51.039Z,9.42
2019-02-09T15:39:20.327Z,9.32
2019-02-09T15:41:49.575Z,9.28
2019-02-09T15:44:18.882Z,9.26
2019-02-09T15:46:48.166Z,9.28
2019-02-09T15:49:17.413Z,9.24
2019-02-09T15:51:46.708Z,9.15
2019-02-09T15:54:15.954Z,9.11
2019-02-09T15:56:45.470Z,9.06
2019-02-09T15:59:15.681Z,9.00
2019-02-09T16:01:46.086Z,9.02
2019-02-09T16:04:17.837Z,8.95
2019-02-09T16:06:48.198Z,8.92
2019-02-09T16:09:19.438Z,8.89
2019-02-09T16:11:48.821Z,8.92
2019-02-09T16:14:19.319Z,8.82
2019-02-09T16:16:49.639Z,8.86
2019-02-09T16:19:18.900Z,8.82
2019-02-09T16:21:48.410Z,8.89
2019-02-09T16:24:19.365Z,8.83
2019-02-09T16:26:48.680Z,8.89
2019-02-09T16:29:17.938Z,8.79
2019-02-09T16:31:47.399Z,8.88
2019-02-09T16:34:16.704Z,8.73
2019-02-09T16:36:45.942Z,8.99
2019-02-09T16:39:15.190Z,8.90
2019-02-09T16:41:44.634Z,8.92
2019-02-09T16:44:13.900Z,9.04
2019-02-09T16:46:43.339Z,8.82
2019-02-09T16:49:12.597Z,8.99
2019-02-09T16:51:41.848Z,8.95
2019-02-09T16:54:12.283Z,8.89
2019-02-09T16:56:41.533Z,8.80
2019-02-09T16:59:10.897Z,8.90
2019-02-09T17:01:40.176Z,8.80
2019-02-09T17:04:12.530Z,8.82
2019-02-09T17:06:44.120Z,9.01
2019-02-09T17:09:14.256Z,8.83
2019-02-09T17:11:44.758Z,8.77
2019-02-09T17:14:15.995Z,8.95
2019-02-09T17:16:48.458Z,8.79
2019-02-09T17:19:18.267Z,8.80
2019-02-09T17:21:50.326Z,8.62
2019-02-09T17:24:20.309Z,8.86
2019-02-09T17:26:50.014Z,8.56
2019-02-09T17:29:21.100Z,8.63
2019-02-09T17:31:53.621Z,8.51
2019-02-09T17:34:22.858Z,8.43
2019-02-09T17:36:53.397Z,8.53
2019-02-09T17:39:22.660Z,8.45
2019-02-09T17:41:52.042Z,8.50
2019-02-09T17:44:21.310Z,8.53
2019-02-09T17:46:51.065Z,8.56
2019-02-09T17:49:20.321Z,8.46
2019-02-09T17:51:49.710Z,8.36
2019-02-09T17:54:18.981Z,8.37
2019-02-09T17:56:49.616Z,8.22
2019-02-09T17:59:20.667Z,8.18
2019-02-09T18:01:49.926Z,8.23
2019-02-09T18:04:19.233Z,8.16
2019-02-09T18:06:48.578Z,8.12
2019-02-09T18:09:18.221Z,8.20
2019-02-09T18:11:49.072Z,8.11
2019-02-09T18:14:18.850Z,8.10
2019-02-09T18:16:48.150Z,8.15
2019-02-09T18:19:19.238Z,7.98
2019-02-09T18:21:50.442Z,7.93
2019-02-09T18:24:21.407Z,7.81
2019-02-09T18:26:50.760Z,7.79
2019-02-09T18:29:20.032Z,7.74
2019-02-09T18:31:50.898Z,7.66
2019-02-09T18:34:21.395Z,7.60
2019-02-09T18:36:50.704Z,7.55
2019-02-09T18:39:19.951Z,7.46
2019-02-09T18:41:49.349Z,7.43
2019-02-09T18:44:18.653Z,7.51
2019-02-09T18:46:47.949Z,7.52
2019-02-09T18:49:17.243Z,7.58
2019-02-09T18:51:48.349Z,7.50
2019-02-09T18:54:17.652Z,7.47
2019-02-09T18:56:46.932Z,7.62
2019-02-09T18:59:16.266Z,7.65
2019-02-09T19:01:47.948Z,7.74
2019-02-09T19:04:19.383Z,7.79
2019-02-09T19:06:50.504Z,7.76
2019-02-09T19:09:22.581Z,7.81
2019-02-09T19:11:53.784Z,7.72
2019-02-09T19:14:24.674Z,7.73
2019-02-09T19:16:55.316Z,7.66
2019-02-09T19:19:26.420Z,7.63
2019-02-09T19:21:57.445Z,7.57
2019-02-09T19:24:28.290Z,7.61
2019-02-09T19:27:00.671Z,7.61
2019-02-09T19:29:30.788Z,7.46
2019-02-09T19:32:01.752Z,7.39
2019-02-09T19:34:31.367Z,7.32
2019-02-09T19:37:02.087Z,7.34
2019-02-09T19:39:33.573Z,7.35
2019-02-09T19:42:08.496Z,7.32
2019-02-09T19:44:41.910Z,7.28
2019-02-09T19:47:14.886Z,7.40
2019-02-09T19:49:47.178Z,7.39
2019-02-09T19:52:18.908Z,7.60
2019-02-09T19:54:51.573Z,7.51
2019-02-09T19:57:23.737Z,7.41
2019-02-09T19:59:53.557Z,7.56
2019-02-09T20:02:23.133Z,7.48
2019-02-09T20:04:53.163Z,7.32
2019-02-09T20:07:27.808Z,7.32
2019-02-09T20:09:58.209Z,7.29
2019-02-09T20:12:29.066Z,7.29
2019-02-09T20:15:00.041Z,7.22
2019-02-09T20:17:29.535Z,7.31
2019-02-09T20:19:59.363Z,7.26
2019-02-09T20:22:29.527Z,7.30
2019-02-09T20:24:59.129Z,7.30
2019-02-09T20:27:29.342Z,7.34
2019-02-09T20:29:58.787Z,7.25
2019-02-09T20:32:28.396Z,7.43
2019-02-09T20:34:57.706Z,7.40
2019-02-09T20:37:26.972Z,7.38
2019-02-09T20:39:57.946Z,7.37
2019-02-09T20:42:28.869Z,7.34
2019-02-09T20:44:58.280Z,7.18
2019-02-09T20:47:28.476Z,7.25
2019-02-09T20:49:58.215Z,7.31
2019-02-09T20:52:27.491Z,7.08
2019-02-09T20:54:56.828Z,6.95
2019-02-09T20:57:26.528Z,6.81
2019-02-09T20:59:55.824Z,6.93
2019-02-09T21:02:25.174Z,7.09
2019-02-09T21:04:54.468Z,7.14
2019-02-09T21:07:24.657Z,7.00
2019-02-09T21:09:54.106Z,6.91
2019-02-09T21:12:23.893Z,6.80
2019-02-09T21:14:53.175Z,6.80
2019-02-09T21:17:22.439Z,6.60
2019-02-09T21:19:51.734Z,6.57
2019-02-09T21:22:22.125Z,6.63
2019-02-09T21:24:51.404Z,6.62
2019-02-09T21:27:20.748Z,6.74
2019-02-09T21:29:50.052Z,6.78
2019-02-09T21:32:19.626Z,6.68
2019-02-09T21:34:48.960Z,6.71
2019-02-09T21:37:18.234Z,6.61
2019-02-09T21:39:47.543Z,6.71
2019-02-09T21:42:16.837Z,6.65
2019-02-09T21:44:46.499Z,6.59
2019-02-09T21:47:16.347Z,6.56
2019-02-09T21:49:45.607Z,6.41
2019-02-09T21:52:15.358Z,6.35
2019-02-09T21:54:45.277Z,6.19
2019-02-09T21:57:14.521Z,6.09
2019-02-09T21:59:43.904Z,6.24
2019-02-09T22:02:13.200Z,6.25
2019-02-09T22:04:42.517Z,6.06
2019-02-09T22:07:12.267Z,6.10
2019-02-09T22:09:41.557Z,6.09
2019-02-09T22:12:12.383Z,5.96
2019-02-09T22:14:41.874Z,5.98
2019-02-09T22:17:11.450Z,6.01
2019-02-09T22:19:41.637Z,6.00
2019-02-09T22:22:10.896Z,5.94
2019-02-09T22:24:40.146Z,5.86
2019-02-09T22:27:09.465Z,5.82
2019-02-09T22:29:38.771Z,5.79
2019-02-09T22:32:08.003Z,5.63
2019-02-09T22:34:37.358Z,5.70
2019-02-09T22:37:06.609Z,5.71
2019-02-09T22:39:36.729Z,5.63
2019-02-09T22:42:06.014Z,5.73
2019-02-09T22:44:36.132Z,5.65
2019-02-09T22:47:07.136Z,5.65
2019-02-09T22:49:36.702Z,5.80
2019-02-09T22:52:06.721Z,5.65
2019-02-09T22:54:35.978Z,5.80
2019-02-09T22:57:05.448Z,5.70
2019-02-09T22:59:34.730Z,5.83
2019-02-09T23:02:06.249Z,5.66
2019-02-09T23:05:06.886Z,5.66
2019-02-09T23:07:36.562Z,5.72
2019-02-09T23:10:13.845Z,5.72
2019-02-09T23:12:48.392Z,5.66
2019-02-09T23:15:14.203Z,5.64
2019-02-09T23:17:43.782Z,5.59
2019-02-09T23:20:13.199Z,5.67
2019-02-09T23:22:42.757Z,5.60
2019-02-09T23:25:12.026Z,5.62
2019-02-09T23:27:41.298Z,5.50
2019-02-09T23:30:13.034Z,5.49
2019-02-09T23:32:42.307Z,5.58
2019-02-09T23:35:11.907Z,5.59
2019-02-09T23:37:41.586Z,5.57
2019-02-09T23:40:10.898Z,5.52
2019-02-09T23:42:40.298Z,5.62
2019-02-09T23:45:09.799Z,5.55
2019-02-09T23:47:39.394Z,5.48
2019-02-09T23:50:09.075Z,5.43
2019-02-09T23:52:38.376Z,5.43
2019-02-09T23:55:08.126Z,5.51
2019-02-09T23:57:37.428Z,5.55
